X  SluitMETAR luchtvaart weer gegevens      EHRD Rotterdam

Temperatuur

4°C Temperatuur

-5°C Dauwpunt

52% Vochtigheid



Wind

24 KM/U

15 MPH

 7 M/S

13 KTS



30°
Noord Noord
Oost
Huidig weer

Geheel bewolkt Geheel bewolkt
Luchtdruk 1035.92 (hPa) - 30.59 (in)
Zicht 6.2 (mi) - 10 (km)
Vliegveld
Vliegveld code EHRD

Locatie Rotterdam 16 (km)

Metar:
EHRD 292055Z AUTO 03013KT 350V060 9999 OVC046 04/M05 Q1036 NOSIG

Tijd: 29-03-2020 22:55